Terminal Aerodrome Forecast
Issued by NWS Pocatello, ID

Home | Current Version | Previous Version | Text Only | Print | Product List | Glossary On
Versions: 1 2 3 4 5 6 7 8 9 10 11 12 13 14 15 16 17 18 19 20 21 22 23 24 25 26 27 28
000
FTUS45 KPIH 211318 AAA
TAFIDA
TAF AMD
KIDA 211318Z 2113/2212 21012KT P6SM -SHRA BKN045 OVC080
     FM211600 20018G28KT P6SM VCSH SCT040 BKN090
     FM212000 21022G32KT P6SM -SHRA VCTS SCT030CB BKN050
     FM220300 21014KT P6SM SCT035 BKN100=

USA.gov is the U.S. government's official web portal to all federal, state and local government web resources and services.